Time;durP1;ratioP1;P1;durP2;ratioP2;P2;SDS_P1;SDS_P2;PMS_P1;PMS_P2;Temp;Humidity;BMP_temperature;BMP_pressure;BME280_temperature;BME280_humidity;BME280_pressure;Samples;Min_cycle;Max_cycle;Signal;HPM_P1;HPM_P2
2022/09/01 00:00:58;;;;;;;6.85;2.67;;;;;;;13.17;90.62;99398.16;4320216;80;21345;-84
2022/09/01 00:07:00;;;;;;;4.78;2.83;;;;;;;13.09;90.88;99394.54;4370137;79;21469;-84
2022/09/01 00:13:05;;;;;;;4.55;3.15;;;;;;;13.08;91.26;99386.67;4338820;79;21018;-84
2022/09/01 00:19:06;;;;;;;4.65;2.75;;;;;;;13.05;91.55;99392.36;4468229;77;21041;-84
2022/09/01 00:25:08;;;;;;;8.08;2.83;;;;;;;13.02;91.74;99382.14;4479676;77;22238;-84
2022/09/01 00:31:10;;;;;;;4.00;2.45;;;;;;;12.99;92.02;99384.82;4341790;80;21566;-83
2022/09/01 00:37:12;;;;;;;8.40;2.80;;;;;;;12.98;92.75;99385.42;4332246;80;21008;-84
2022/09/01 00:43:21;;;;;;;7.05;3.20;;;;;;;12.95;92.29;99381.27;4337173;79;21407;-84
2022/09/01 00:49:29;;;;;;;5.97;2.77;;;;;;;12.81;92.06;99376.43;4344362;79;21000;-84
2022/09/01 00:55:35;;;;;;;3.65;2.22;;;;;;;12.66;92.96;99376.12;4361186;79;21067;-84
2022/09/01 01:01:36;;;;;;;5.80;2.62;;;;;;;12.63;93.06;99377.68;4320836;80;21059;-84
2022/09/01 01:07:41;;;;;;;5.90;2.92;;;;;;;12.52;93.32;99376.80;4477772;77;21548;-84
2022/09/01 01:14:10;;;;;;;8.23;5.00;;;;;;;12.46;93.25;99381.05;4469257;77;21018;-84
2022/09/01 01:26:32;;;;;;;12.98;7.25;;;;;;;12.36;93.81;99378.19;4476365;77;21845;-85
2022/09/01 01:32:34;;;;;;;10.80;4.53;;;;;;;12.21;93.71;99376.47;4447145;77;20956;-83
2022/09/01 01:38:37;;;;;;;10.25;5.95;;;;;;;12.06;93.96;99387.87;4473293;77;21035;-83
2022/09/01 01:44:39;;;;;;;8.78;4.97;;;;;;;12.00;93.88;99381.71;4478797;77;22089;-84
2022/09/01 01:50:41;;;;;;;5.15;3.30;;;;;;;11.86;94.27;99379.60;4476044;77;21011;-83
2022/09/01 01:56:43;;;;;;;4.72;2.90;;;;;;;11.84;94.73;99368.81;4311605;80;21935;-83
2022/09/01 02:02:51;;;;;;;5.17;3.17;;;;;;;11.87;95.00;99379.03;4479057;77;21312;-84
2022/09/01 02:09:01;;;;;;;5.05;2.40;;;;;;;11.79;95.02;99372.64;4321271;80;21055;-83
2022/09/01 02:15:01;;;;;;;5.75;2.72;;;;;;;11.81;95.42;99375.02;4325092;79;21082;-84
2022/09/01 02:21:09;;;;;;;5.60;2.30;;;;;;;11.83;95.73;99370.75;4349380;79;21502;-83
2022/09/01 02:27:11;;;;;;;5.72;2.60;;;;;;;11.82;95.88;99374.67;4338442;79;21014;-83
2022/09/01 02:33:19;;;;;;;9.50;2.67;;;;;;;11.82;95.91;99373.88;4321231;80;21954;-83
2022/09/01 02:39:27;;;;;;;5.80;2.62;;;;;;;11.79;95.94;99376.76;4328231;80;21031;-85
2022/09/01 02:45:28;;;;;;;6.03;2.25;;;;;;;11.72;95.83;99378.63;4333975;80;21515;-83
2022/09/01 02:51:30;;;;;;;5.67;2.37;;;;;;;11.60;95.95;99374.73;4470968;77;21557;-84
2022/09/01 02:57:33;;;;;;;6.33;2.62;;;;;;;11.58;96.10;99379.80;4437401;77;20988;-83
2022/09/01 03:03:36;;;;;;;3.95;2.30;;;;;;;11.52;96.51;99381.28;4456375;78;20969;-84
2022/09/01 03:09:40;;;;;;;5.97;2.77;;;;;;;11.58;96.70;99374.30;4457131;78;21510;-83
2022/09/01 03:15:43;;;;;;;5.08;2.50;;;;;;;11.59;96.58;99375.30;4285072;81;21033;-83
2022/09/01 03:21:45;;;;;;;5.00;2.80;;;;;;;11.58;97.05;99367.45;4453633;78;21024;-83
2022/09/01 03:27:50;;;;;;;7.35;2.45;;;;;;;11.53;97.08;99363.66;4458612;78;21067;-84
2022/09/01 03:33:56;;;;;;;6.83;2.87;;;;;;;11.51;97.47;99365.41;4452923;78;21011;-83
2022/09/01 03:40:04;;;;;;;6.62;3.15;;;;;;;11.53;97.61;99360.34;4452834;78;20971;-84
2022/09/01 03:46:08;;;;;;;;;;;;;;;11.53;97.63;99363.09;4433402;78;21050;-83
2022/09/01 03:52:10;;;;;;;5.42;2.60;;;;;;;11.43;98.01;99368.44;4446122;78;20438;-84
2022/09/01 03:58:17;;;;;;;6.17;2.98;;;;;;;11.38;97.95;99371.50;4464054;78;21030;-84
2022/09/01 04:04:19;;;;;;;4.12;2.67;;;;;;;11.30;98.42;99366.50;4349329;79;21086;-85
2022/09/01 04:10:26;;;;;;;6.45;2.90;;;;;;;11.34;98.57;99374.18;4488177;76;22121;-83
2022/09/01 04:22:51;;;;;;;4.28;2.62;;;;;;;11.24;98.58;99387.17;4483854;77;22234;-83
2022/09/01 04:28:54;;;;;;;5.85;2.55;;;;;;;11.27;98.74;99378.20;4496190;76;21162;-83
2022/09/01 04:35:01;;;;;;;4.45;2.40;;;;;;;11.27;98.93;99380.95;4476882;77;21406;-83
2022/09/01 04:41:05;;;;;;;9.20;2.80;;;;;;;11.28;98.90;99380.34;4483408;76;21041;-84
2022/09/01 04:47:09;;;;;;;6.90;3.02;;;;;;;11.27;98.93;99386.42;4484139;77;21002;-82
2022/09/01 04:53:11;;;;;;;6.92;3.87;;;;;;;11.29;98.95;99385.45;4493585;76;21050;-84
2022/09/01 04:59:14;;;;;;;12.33;4.70;;;;;;;11.32;98.98;99388.05;4500768;76;21002;-83
2022/09/01 05:05:22;;;;;;;11.30;4.70;;;;;;;11.35;99.13;99385.95;4515280;76;21422;-83
2022/09/01 05:11:26;;;;;;;12.65;4.65;;;;;;;11.40;99.34;99389.14;4503051;76;21048;-82
2022/09/01 05:17:30;;;;;;;7.70;3.52;;;;;;;11.47;99.83;99391.99;4502214;76;21748;-82
2022/09/01 05:23:32;;;;;;;5.30;2.60;;;;;;;11.54;99.90;99392.67;4520321;76;21002;-82
2022/09/01 05:29:36;;;;;;;5.37;2.83;;;;;;;11.60;100.00;99393.92;4513805;76;21521;-82
2022/09/01 05:35:43;;;;;;;5.72;2.83;;;;;;;11.68;100.00;99390.92;4508560;76;21004;-83
2022/09/01 05:41:44;;;;;;;4.70;2.75;;;;;;;11.81;100.00;99391.47;4521455;76;21727;-83
2022/09/01 05:47:47;;;;;;;6.40;2.70;;;;;;;11.95;100.00;99390.30;4515613;76;20966;-83
2022/09/01 05:53:50;;;;;;;6.33;3.22;;;;;;;12.09;100.00;99390.46;4535734;76;21013;-83
2022/09/01 05:59:54;;;;;;;4.50;2.50;;;;;;;12.27;100.00;99387.31;4501326;76;21552;-84
2022/09/01 06:06:08;;;;;;;7.53;3.05;;;;;;;12.46;100.00;99390.66;4514905;76;21043;-83
2022/09/01 06:12:16;;;;;;;4.72;2.60;;;;;;;12.65;100.00;99402.02;4512280;76;21025;-84
2022/09/01 06:18:13;;;;;;;5.55;2.67;;;;;;;12.84;100.00;99403.17;4503431;76;21044;-83
2022/09/01 06:24:17;;;;;;;7.55;2.77;;;;;;;13.08;100.00;99407.29;4472235;77;20989;-84
2022/09/01 06:30:21;;;;;;;9.45;2.30;;;;;;;13.42;100.00;99410.11;4456217;78;21514;-84
2022/09/01 06:36:24;;;;;;;5.20;2.83;;;;;;;13.81;100.00;99401.48;4374793;79;21028;-83
2022/09/01 06:42:27;;;;;;;3.87;1.95;;;;;;;14.06;98.69;99400.98;4357066;79;21006;-82
2022/09/01 06:48:31;;;;;;;6.75;2.72;;;;;;;14.30;98.18;99406.41;4363166;79;21526;-83
2022/09/01 06:54:38;;;;;;;3.47;2.00;;;;;;;14.42;97.57;99419.22;4478878;77;21080;-84
2022/09/01 07:00:40;;;;;;;3.90;2.27;;;;;;;14.58;96.26;99422.99;4484414;77;21002;-85
2022/09/01 07:06:44;;;;;;;4.55;1.70;;;;;;;14.73;94.68;99415.73;4473859;77;21034;-85
2022/09/01 07:12:54;;;;;;;4.30;2.33;;;;;;;14.88;94.07;99420.06;4320710;79;21000;-84
2022/09/01 07:19:00;;;;;;;4.70;1.72;;;;;;;15.14;94.24;99421.05;4340754;80;21597;-84
2022/09/01 07:25:01;;;;;;;3.77;2.02;;;;;;;15.36;93.44;99423.98;4451547;77;20998;-85
2022/09/01 07:31:24;;;;;;;4.33;1.98;;;;;;;15.57;92.96;99421.23;4473934;77;20988;-84
2022/09/01 07:37:26;;;;;;;5.60;1.72;;;;;;;15.90;92.36;99419.15;4315778;79;20972;-84
2022/09/01 07:43:28;;;;;;;6.00;1.92;;;;;;;16.09;92.14;99422.83;4364822;80;21869;-84
2022/09/01 07:49:39;;;;;;;4.42;2.05;;;;;;;16.26;91.30;99424.72;4338646;79;21014;-85
2022/09/01 07:55:40;;;;;;;4.53;1.85;;;;;;;16.46;89.50;99414.80;4355340;79;21020;-84
2022/09/01 08:01:42;;;;;;;5.80;1.72;;;;;;;16.79;89.65;99416.92;4298705;80;21137;-85
2022/09/01 08:07:47;;;;;;;5.78;1.72;;;;;;;17.16;88.58;99411.52;4304779;80;21071;-86
2022/09/01 08:13:48;;;;;;;8.35;2.08;;;;;;;17.66;87.74;99416.78;4303884;81;21041;-85
2022/09/01 08:19:50;;;;;;;3.67;1.90;;;;;;;18.08;86.28;99421.04;4450523;78;21498;-85
2022/09/01 08:25:56;;;;;;;3.25;1.85;;;;;;;18.26;85.90;99422.38;4452917;78;21545;-85
2022/09/01 08:31:58;;;;;;;6.05;1.90;;;;;;;18.55;85.06;99426.39;4288304;80;21062;-84
2022/09/01 08:37:59;;;;;;;5.42;1.87;;;;;;;18.56;83.50;99423.79;4319041;80;20987;-84
2022/09/01 08:44:28;;;;;;;8.03;2.30;;;;;;;18.72;81.82;99421.78;4451877;78;20982;-85
2022/09/01 08:50:34;;;;;;;4.12;1.52;;;;;;;18.75;81.08;99416.78;4304170;80;20973;-85
2022/09/01 08:57:00;;;;;;;3.60;1.55;;;;;;;18.89;80.68;99419.33;4429989;78;21042;-85
2022/09/01 09:03:14;;;;;;;4.95;1.25;;;;;;;19.29;80.11;99416.94;4358232;80;21026;-86
2022/09/01 09:09:15;;;;;;;4.25;1.32;;;;;;;19.63;78.97;99419.48;4491535;78;21408;-86
2022/09/01 09:15:37;;;;;;;2.90;1.37;;;;;;;20.18;78.41;99414.05;4499202;78;21041;-84
2022/09/01 09:21:43;;;;;;;1.67;1.00;;;;;;;20.63;77.09;99416.44;4494573;77;21468;-84
2022/09/01 09:27:50;;;;;;;1.32;0.72;;;;;;;21.00;75.90;99406.86;4467366;78;21002;-86
2022/09/01 09:33:51;;;;;;;;;;;;;;;21.64;74.41;99398.44;4506727;76;20976;-86
2022/09/01 09:40:17;;;;;;;1.07;0.53;;;;;;;22.58;71.23;99409.49;4516190;76;20149;-85
2022/09/01 09:46:38;;;;;;;2.15;0.60;;;;;;;23.50;71.20;99402.48;4505431;76;21037;-87
2022/09/01 09:52:39;;;;;;;2.30;0.70;;;;;;;24.32;69.49;99393.49;4519854;76;20959;-86
2022/09/01 09:58:43;;;;;;;2.58;0.50;;;;;;;24.21;67.92;99367.17;4510833;76;20978;-86
2022/09/01 10:04:44;;;;;;;1.00;0.50;;;;;;;23.39;65.42;99402.68;4493296;76;21877;-86
2022/09/01 10:10:49;;;;;;;1.45;0.60;;;;;;;22.53;64.84;99400.28;4498209;76;21073;-85
2022/09/01 10:16:59;;;;;;;3.20;0.65;;;;;;;21.89;64.07;99392.98;4483923;76;21537;-86
2022/09/01 10:23:01;;;;;;;4.03;0.62;;;;;;;23.77;62.66;99380.37;4482755;76;21549;-86
2022/09/01 10:29:11;;;;;;;3.90;0.62;;;;;;;22.96;61.34;99388.71;4509081;76;21007;-86
2022/09/01 10:35:30;;;;;;;1.00;0.50;;;;;;;22.96;61.34;99388.71;4486742;77;21010;-86
2022/09/01 10:41:51;;;;;;;3.22;0.85;;;;;;;22.47;60.61;99388.88;4491271;77;21468;-86
2022/09/01 10:47:52;;;;;;;0.98;0.45;;;;;;;21.58;59.45;99387.66;4490007;76;21033;-85
2022/09/01 10:53:56;;;;;;;2.47;0.50;;;;;;;20.81;58.42;99384.03;4480148;77;20971;-85
2022/09/01 11:00:25;;;;;;;1.52;0.72;;;;;;;20.68;58.39;99381.16;4497464;76;20974;-85
2022/09/01 11:07:01;;;;;;;2.83;0.70;;;;;;;20.65;57.76;99377.85;4523038;76;21001;-86
2022/09/01 11:13:22;;;;;;;3.08;0.80;;;;;;;20.43;57.60;99375.38;4506004;76;21544;-87
2022/09/01 11:19:41;;;;;;;2.17;0.50;;;;;;;20.91;58.10;99372.64;4473702;76;21525;-86
2022/09/01 11:25:55;;;;;;;2.05;0.57;;;;;;;22.41;57.50;99361.98;4511842;76;21101;-85
2022/09/01 11:31:58;;;;;;;1.57;0.60;;;;;;;23.40;55.19;99364.52;4507699;76;22195;-84
2022/09/01 11:38:06;;;;;;;1.82;1.00;;;;;;;22.28;54.64;99366.14;4473790;77;21377;-84
2022/09/01 11:44:33;;;;;;;2.47;0.45;;;;;;;21.51;54.48;99364.95;4484254;77;20980;-83
2022/09/01 11:50:41;;;;;;;2.80;0.75;;;;;;;21.58;54.12;99349.42;4476446;77;20980;-83
2022/09/01 11:56:42;;;;;;;1.95;0.60;;;;;;;21.61;52.75;99347.14;4469955;77;21109;-86
2022/09/01 12:02:47;;;;;;;1.57;0.40;;;;;;;21.78;51.42;99352.70;4462240;78;21490;-85
2022/09/01 12:08:57;;;;;;;1.20;0.60;;;;;;;21.74;51.72;99354.16;4460265;78;21488;-85
2022/09/01 12:15:19;;;;;;;3.30;0.65;;;;;;;21.64;50.86;99344.87;4451262;78;21034;-85
2022/09/01 12:21:41;;;;;;;3.77;0.70;;;;;;;21.19;50.63;99344.12;4447076;78;21040;-86
2022/09/01 12:27:42;;;;;;;1.42;0.55;;;;;;;20.77;50.25;99339.59;4447016;78;21696;-85
2022/09/01 12:33:46;;;;;;;2.20;0.50;;;;;;;20.77;49.96;99334.63;4302042;80;21040;-85
2022/09/01 12:39:56;;;;;;;1.45;0.53;;;;;;;20.82;48.87;99338.29;4452117;78;21019;-85
2022/09/01 12:46:00;;;;;;;1.75;0.42;;;;;;;20.79;48.72;99334.98;4451423;78;20986;-85
2022/09/01 12:52:26;;;;;;;1.90;0.40;;;;;;;20.78;48.12;99332.81;4453412;78;20967;-86
2022/09/01 12:58:29;;;;;;;1.15;0.45;;;;;;;20.73;46.38;99327.79;4451542;78;21036;-86
2022/09/01 13:04:32;;;;;;;2.45;0.93;;;;;;;20.76;45.82;99326.92;4457585;77;21000;-85
2022/09/01 13:10:40;;;;;;;1.75;0.30;;;;;;;20.89;46.89;99319.41;4460322;77;21008;-85
2022/09/01 13:16:42;;;;;;;2.62;0.40;;;;;;;20.81;46.71;99335.34;4452751;77;20935;-86
2022/09/01 13:22:43;;;;;;;2.00;0.40;;;;;;;20.71;45.42;99322.47;4457126;77;20969;-86
2022/09/01 13:28:45;;;;;;;0.57;0.33;;;;;;;20.66;45.39;99319.60;4459729;78;20990;-85
2022/09/01 13:34:48;;;;;;;0.68;0.30;;;;;;;20.78;45.77;99325.85;4451125;77;20955;-85
2022/09/01 13:40:51;;;;;;;1.75;0.30;;;;;;;20.87;46.03;99324.66;4446315;77;21061;-85
2022/09/01 13:46:53;;;;;;;1.70;0.60;;;;;;;20.57;46.26;99331.16;4463423;77;21041;-85
2022/09/01 13:52:56;;;;;;;9.58;0.80;;;;;;;20.22;46.45;99327.82;4452596;77;21012;-85
2022/09/01 13:58:57;;;;;;;1.30;0.40;;;;;;;19.95;46.98;99334.30;4454487;77;20978;-85
2022/09/01 14:04:59;;;;;;;1.02;0.37;;;;;;;19.73;46.74;99338.73;4464237;78;20958;-85
2022/09/01 14:11:01;;;;;;;2.40;0.55;;;;;;;19.53;46.75;99342.73;4452113;78;21463;-85
2022/09/01 14:17:03;;;;;;;0.30;0.30;;;;;;;19.45;47.11;99342.06;4456637;78;20959;-85
2022/09/01 14:23:07;;;;;;;1.00;0.37;;;;;;;19.37;47.44;99337.09;4456139;78;21491;-85
2022/09/01 14:29:08;;;;;;;4.15;0.45;;;;;;;19.29;47.68;99334.26;4452272;78;21365;-85
2022/09/01 14:35:10;;;;;;;2.20;0.50;;;;;;;19.22;47.73;99325.42;4462096;78;21486;-85
2022/09/01 14:41:19;;;;;;;1.02;0.50;;;;;;;19.20;49.15;99329.22;4456548;78;21546;-85
2022/09/01 14:47:23;;;;;;;0.72;0.40;;;;;;;19.11;49.33;99321.27;4465543;78;20976;-85
2022/09/01 14:53:23;;;;;;;1.65;0.40;;;;;;;19.17;48.88;99320.36;4461559;78;20938;-86
2022/09/01 14:59:25;;;;;;;4.40;0.47;;;;;;;19.31;48.40;99320.75;4317253;80;21099;-85
2022/09/01 15:05:26;;;;;;;1.05;0.50;;;;;;;19.28;48.46;99319.59;4485636;76;20937;-85
2022/09/01 15:11:28;;;;;;;1.02;0.30;;;;;;;19.13;48.47;99321.63;4339193;80;21005;-85
2022/09/01 15:17:29;;;;;;;2.52;0.50;;;;;;;19.00;47.72;99324.23;4347235;79;20960;-85
2022/09/01 15:23:31;;;;;;;2.50;0.30;;;;;;;18.81;47.60;99322.18;4458370;78;20985;-85
2022/09/01 15:29:33;;;;;;;2.40;0.47;;;;;;;18.68;47.65;99324.00;4476072;76;21018;-85
2022/09/01 15:35:35;;;;;;;2.37;0.50;;;;;;;18.64;47.95;99328.21;4482480;76;20975;-84
2022/09/01 15:41:37;;;;;;;2.83;0.50;;;;;;;18.57;48.30;99338.02;4477762;76;20992;-85
2022/09/01 15:47:39;;;;;;;3.77;1.50;;;;;;;18.65;48.10;99337.33;4488988;76;21013;-86
2022/09/01 15:53:41;;;;;;;3.00;0.93;;;;;;;18.65;47.90;99343.64;4500269;76;20991;-86
2022/09/01 15:59:43;;;;;;;3.42;0.60;;;;;;;18.56;48.06;99334.28;4484572;76;21062;-85
2022/09/01 16:05:44;;;;;;;2.70;0.62;;;;;;;18.45;48.27;99344.15;4466030;77;21030;-85
2022/09/01 16:11:55;;;;;;;2.22;0.70;;;;;;;18.37;48.26;99340.50;4463604;78;20984;-85
2022/09/01 16:18:17;;;;;;;2.75;0.53;;;;;;;18.29;48.61;99346.72;4467468;78;21049;-84
2022/09/01 16:24:19;;;;;;;9.28;0.85;;;;;;;18.21;49.15;99342.48;4463424;77;21077;-85
2022/09/01 16:30:26;;;;;;;0.85;0.40;;;;;;;18.14;49.83;99343.98;4462877;77;22307;-85
2022/09/01 16:36:57;;;;;;;;;;;;;;;18.05;50.43;99352.62;4486662;77;21035;-85
2022/09/01 16:43:25;;;;;;;0.80;0.40;;;;;;;17.98;51.81;99349.33;4496630;77;20110;-85
2022/09/01 16:49:47;;;;;;;2.10;0.50;;;;;;;17.82;51.52;99356.06;4339243;80;21032;-86
2022/09/01 16:56:03;;;;;;;3.80;1.32;;;;;;;17.71;51.76;99357.41;4321018;80;20991;-85
2022/09/01 17:02:30;;;;;;;2.37;0.60;;;;;;;17.65;53.03;99365.36;4499919;76;21064;-85
2022/09/01 17:08:34;;;;;;;;;;;;;;;17.48;52.93;99364.20;4512280;76;21027;-84
2022/09/01 17:14:46;;;;;;;1.62;0.40;;;;;;;17.33;55.25;99377.36;4512063;76;20139;-85
2022/09/01 17:20:52;;;;;;;2.92;0.78;;;;;;;17.14;55.25;99378.73;4363770;79;21589;-85
2022/09/01 17:27:06;;;;;;;2.60;0.60;;;;;;;16.97;55.02;99379.67;4529521;76;20995;-85
2022/09/01 17:33:26;;;;;;;2.00;0.42;;;;;;;16.84;55.04;99377.20;4531851;76;20971;-86
2022/09/01 17:40:06;;;;;;;1.25;0.53;;;;;;;16.76;55.23;99384.56;4505222;76;20978;-85
2022/09/01 17:46:27;;;;;;;4.53;0.80;;;;;;;16.60;55.20;99386.45;4381656;76;21037;-84
2022/09/01 17:53:00;;;;;;;2.87;0.95;;;;;;;16.42;57.04;99391.87;4503180;76;21096;-85
2022/09/01 17:59:13;;;;;;;1.92;0.90;;;;;;;16.18;58.60;99394.97;4527594;76;21007;-85
2022/09/01 18:05:20;;;;;;;2.00;1.20;;;;;;;16.03;57.93;99399.00;4480773;76;21000;-85
2022/09/01 18:11:33;;;;;;;4.25;1.62;;;;;;;15.97;58.11;99413.03;4452163;77;20989;-85
2022/09/01 18:17:40;;;;;;;4.70;1.98;;;;;;;15.88;58.10;99422.31;4305569;79;20995;-85
2022/09/01 18:23:45;;;;;;;5.28;2.67;;;;;;;15.85;58.97;99425.11;4456127;78;21330;-85
2022/09/01 18:29:46;;;;;;;8.48;2.95;;;;;;;15.81;58.88;99430.63;4466143;77;21043;-85
2022/09/01 18:36:05;;;;;;;6.90;2.20;;;;;;;15.75;59.20;99432.81;4312607;79;20974;-85
2022/09/01 18:42:49;;;;;;;6.25;2.25;;;;;;;15.67;60.55;99434.81;4307499;79;21030;-84
2022/09/01 18:49:08;;;;;;;4.20;1.35;;;;;;;15.55;60.90;99434.63;4449805;77;21016;-84
2022/09/01 18:55:39;;;;;;;2.45;1.20;;;;;;;15.42;61.41;99440.38;4467931;77;21512;-84
2022/09/01 19:01:55;;;;;;;2.77;1.10;;;;;;;15.31;61.71;99436.02;4456065;76;21040;-84
2022/09/01 19:08:16;;;;;;;2.83;0.80;;;;;;;15.16;61.91;99442.73;4452136;76;21007;-84
2022/09/01 19:14:41;;;;;;;2.87;1.45;;;;;;;15.04;62.31;99453.56;4464248;77;20972;-84
2022/09/01 19:21:03;;;;;;;2.55;1.10;;;;;;;14.93;62.73;99462.98;4465295;77;21050;-84
2022/09/01 19:27:18;;;;;;;3.47;1.20;;;;;;;14.79;62.99;99461.59;4469899;77;20983;-84
2022/09/01 19:33:25;;;;;;;2.45;1.17;;;;;;;14.63;63.29;99463.91;4469555;77;20976;-84
2022/09/01 19:39:34;;;;;;;3.52;1.30;;;;;;;14.47;63.53;99469.78;4329200;78;21007;-84
2022/09/01 19:46:21;;;;;;;3.27;1.50;;;;;;;14.26;64.01;99471.09;4462205;77;21024;-84
2022/09/01 19:52:31;;;;;;;1.98;1.00;;;;;;;14.14;64.60;99480.45;4459912;77;21440;-84
2022/09/01 19:59:15;;;;;;;2.58;1.25;;;;;;;13.96;65.35;99479.59;4452380;76;20980;-84
2022/09/01 20:05:44;;;;;;;4.60;1.55;;;;;;;13.86;65.89;99483.06;4518064;76;20973;-84
2022/09/01 20:12:00;;;;;;;6.25;1.37;;;;;;;13.66;66.46;99479.59;4526061;76;21480;-84
2022/09/01 20:18:06;;;;;;;6.67;1.37;;;;;;;13.56;67.10;99481.70;4366741;79;20966;-84
2022/09/01 20:24:19;;;;;;;2.87;1.52;;;;;;;13.44;67.67;99488.29;4522230;76;21015;-84
2022/09/01 20:30:28;;;;;;;2.92;1.40;;;;;;;13.18;67.91;99491.81;4516741;76;21066;-85
2022/09/01 20:36:44;;;;;;;2.70;1.70;;;;;;;12.95;68.33;99496.68;4519294;76;21053;-85
2022/09/01 20:43:13;;;;;;;4.78;1.77;;;;;;;12.73;68.92;99494.89;4534415;76;21320;-84
2022/09/01 20:49:15;;;;;;;3.95;1.60;;;;;;;12.66;69.54;99499.72;4526775;76;21364;-84
2022/09/01 20:55:46;;;;;;;3.72;1.92;;;;;;;12.76;71.52;99511.41;4520787;76;21066;-84
2022/09/01 21:02:14;;;;;;;4.85;1.65;;;;;;;12.67;71.96;99508.16;4476677;77;21047;-84
2022/09/01 21:08:54;;;;;;;6.00;1.82;;;;;;;12.56;72.47;99504.50;4487136;77;21013;-81
2022/09/01 21:15:15;;;;;;;4.17;1.57;;;;;;;12.38;72.62;99514.50;4432150;77;20974;-84
2022/09/01 21:21:43;;;;;;;3.10;1.70;;;;;;;12.11;73.47;99516.52;4476923;77;21019;-84
2022/09/01 21:27:51;;;;;;;4.75;1.70;;;;;;;12.01;74.02;99520.50;4180967;83;21038;-84
2022/09/01 21:33:52;;;;;;;7.33;1.75;;;;;;;11.91;74.49;99526.05;4468628;77;21574;-84
2022/09/01 21:39:55;;;;;;;5.25;1.72;;;;;;;11.73;75.73;99521.47;4481003;77;21030;-83
2022/09/01 21:45:56;;;;;;;6.58;1.47;;;;;;;11.56;75.05;99527.45;4512610;76;21046;-85
2022/09/01 21:51:57;;;;;;;4.33;1.77;;;;;;;11.30;74.77;99530.95;4516378;76;21724;-84
2022/09/01 21:57:59;;;;;;;4.33;2.33;;;;;;;11.21;76.24;99530.98;4511024;76;21037;-83
2022/09/01 22:04:03;;;;;;;2.80;1.57;;;;;;;11.21;76.12;99528.23;4363619;79;21663;-84
2022/09/01 22:10:08;;;;;;;2.77;1.40;;;;;;;11.12;77.42;99526.33;4333373;80;21026;-83
2022/09/01 22:16:20;;;;;;;5.55;1.75;;;;;;;10.99;77.64;99529.83;4321288;80;21006;-83
2022/09/01 22:22:21;;;;;;;4.28;1.55;;;;;;;10.90;77.90;99532.78;4332516;80;21037;-83
2022/09/01 22:28:22;;;;;;;4.15;1.65;;;;;;;10.86;79.08;99522.36;4337759;79;21007;-83
2022/09/01 22:34:23;;;;;;;3.05;1.90;;;;;;;10.77;78.99;99531.36;4312555;79;20984;-83
2022/09/01 22:40:25;;;;;;;4.85;1.82;;;;;;;10.75;79.55;99524.11;4325453;79;21514;-83
2022/09/01 22:46:27;;;;;;;7.35;2.10;;;;;;;10.69;79.83;99535.14;4326382;79;20949;-83
2022/09/01 22:52:28;;;;;;;3.90;2.08;;;;;;;10.66;80.11;99529.59;4345223;79;21525;-83
2022/09/01 22:58:30;;;;;;;2.77;1.80;;;;;;;10.53;79.88;99530.33;4321880;80;20982;-83
2022/09/01 23:04:31;;;;;;;4.35;2.08;;;;;;;10.44;80.42;99525.66;4377691;79;20970;-83
2022/09/01 23:10:33;;;;;;;9.80;2.33;;;;;;;10.29;80.65;99518.30;4405261;79;21031;-83
2022/09/01 23:16:34;;;;;;;6.45;2.33;;;;;;;10.18;80.85;99517.88;4351182;79;21631;-83
2022/09/01 23:22:36;;;;;;;4.42;1.98;;;;;;;10.08;81.27;99523.91;4493997;78;21597;-84
2022/09/01 23:28:39;;;;;;;3.90;2.37;;;;;;;10.05;81.71;99530.06;4515200;76;21585;-83
2022/09/01 23:34:40;;;;;;;4.90;2.10;;;;;;;10.09;82.79;99530.95;4501549;76;20968;-83
2022/09/01 23:40:49;;;;;;;4.45;2.02;;;;;;;10.06;82.37;99531.08;4502679;76;20951;-83
2022/09/01 23:46:50;;;;;;;6.30;2.40;;;;;;;9.98;82.35;99529.90;4503736;76;21726;-82
2022/09/01 23:52:52;;;;;;;4.37;2.00;;;;;;;9.82;82.47;99531.91;4516015;76;21553;-83
2022/09/01 23:58:53;;;;;;;2.83;1.90;;;;;;;9.73;83.31;99524.45;4511714;76;21589;-82
